Time;durP1;ratioP1;P1;durP2;ratioP2;P2;SDS_P1;SDS_P2;PMS_P1;PMS_P2;Temp;Humidity;BMP_temperature;BMP_pressure;BME280_temperature;BME280_humidity;BME280_pressure;Samples;Min_cycle;Max_cycle;Signal;HPM_P1;HPM_P2
2022/12/02 00:00:20;;;;;;;;;;;18.70;59.40;;;;;;5039354;28;1975;-71
2022/12/02 00:02:45;;;;;;;;;;;18.70;59.40;;;;;;5036654;28;840;-71
2022/12/02 00:05:13;;;;;;;;;;;18.70;59.40;;;;;;5059505;28;855;-71
2022/12/02 00:07:39;;;;;;;;;;;18.70;59.40;;;;;;5058259;28;894;-71
2022/12/02 00:10:19;;;;;;;;;;;18.70;59.50;;;;;;5058963;28;1663;-71
2022/12/02 00:12:45;;;;;;;;;;;18.70;59.50;;;;;;5050309;28;1339;-71
2022/12/02 00:15:30;;;;;;;;;;;18.70;59.50;;;;;;5038739;28;1259;-71
2022/12/02 00:17:56;;;;;;;;;;;18.70;59.50;;;;;;5054650;28;1075;-71
2022/12/02 00:20:21;;;;;;;;;;;18.70;59.50;;;;;;5058601;28;1981;-71
2022/12/02 00:22:47;;;;;;;;;;;18.70;59.50;;;;;;5058111;28;1528;-71
2022/12/02 00:25:12;;;;;;;;;;;18.70;59.60;;;;;;5058512;28;942;-71
2022/12/02 00:27:38;;;;;;;;;;;18.70;59.60;;;;;;5054952;28;803;-71
2022/12/02 00:30:03;;;;;;;;;;;18.70;59.80;;;;;;5056098;28;1350;-71
2022/12/02 00:32:29;;;;;;;;;;;18.70;59.70;;;;;;5060814;28;785;-71
2022/12/02 00:34:54;;;;;;;;;;;18.70;59.70;;;;;;5055653;28;891;-71
2022/12/02 00:37:20;;;;;;;;;;;18.60;59.60;;;;;;5057178;28;1334;-71
2022/12/02 00:39:45;;;;;;;;;;;18.60;59.70;;;;;;5057121;28;1961;-71
2022/12/02 00:42:10;;;;;;;;;;;18.60;59.70;;;;;;5058064;28;895;-71
2022/12/02 00:47:20;;;;;;;;;;;18.60;59.70;;;;;;5056919;28;1327;-71
2022/12/02 00:49:46;;;;;;;;;;;18.70;59.80;;;;;;5056718;28;1365;-71
2022/12/02 00:52:11;;;;;;;;;;;18.60;59.70;;;;;;5057771;28;1010;-71
2022/12/02 00:54:37;;;;;;;;;;;18.70;59.80;;;;;;5052585;28;883;-71
2022/12/02 00:57:02;;;;;;;;;;;18.60;59.70;;;;;;5054287;28;797;-71
2022/12/02 00:59:27;;;;;;;;;;;18.70;59.80;;;;;;5055742;28;1927;-71
2022/12/02 01:01:53;;;;;;;;;;;18.60;59.80;;;;;;5056710;28;895;-71
2022/12/02 01:04:18;;;;;;;;;;;18.60;59.80;;;;;;5055485;28;841;-71
2022/12/02 01:06:44;;;;;;;;;;;18.60;59.80;;;;;;5051859;28;1006;-71
2022/12/02 01:09:09;;;;;;;;;;;18.70;59.80;;;;;;5058562;28;1296;-71
2022/12/02 01:11:35;;;;;;;;;;;18.60;59.80;;;;;;5062330;28;907;-71
2022/12/02 01:14:00;;;;;;;;;;;18.60;59.80;;;;;;5058279;28;1330;-71
2022/12/02 01:16:26;;;;;;;;;;;18.60;59.80;;;;;;5057702;28;875;-71
2022/12/02 01:18:51;;;;;;;;;;;18.60;59.80;;;;;;5061196;28;1273;-71
2022/12/02 01:21:17;;;;;;;;;;;18.60;59.80;;;;;;5060570;28;1926;-71
2022/12/02 01:23:42;;;;;;;;;;;18.60;59.90;;;;;;5064360;28;1177;-71
2022/12/02 01:26:08;;;;;;;;;;;18.60;59.90;;;;;;5062581;28;886;-71
2022/12/02 01:28:33;;;;;;;;;;;18.60;59.90;;;;;;5061596;28;1337;-70
2022/12/02 01:30:58;;;;;;;;;;;18.60;59.90;;;;;;5062204;28;877;-71
2022/12/02 01:33:24;;;;;;;;;;;18.60;59.90;;;;;;5060370;28;899;-71
2022/12/02 01:35:49;;;;;;;;;;;18.60;59.90;;;;;;5061112;28;919;-71
2022/12/02 01:38:15;;;;;;;;;;;18.60;59.90;;;;;;5058641;28;1193;-71
2022/12/02 01:40:40;;;;;;;;;;;18.60;60.00;;;;;;5058263;28;1971;-71
2022/12/02 01:43:06;;;;;;;;;;;18.60;60.00;;;;;;5043529;28;825;-71
2022/12/02 01:45:31;;;;;;;;;;;18.60;60.00;;;;;;5060156;28;953;-71
2022/12/02 01:47:58;;;;;;;;;;;18.60;60.00;;;;;;5040399;28;867;-71
2022/12/02 01:50:23;;;;;;;;;;;18.60;60.00;;;;;;5060922;28;930;-71
2022/12/02 01:52:49;;;;;;;;;;;18.60;60.00;;;;;;5063277;28;971;-71
2022/12/02 01:55:16;;;;;;;;;;;18.60;60.00;;;;;;5059117;28;1069;-71
2022/12/02 01:57:41;;;;;;;;;;;18.50;60.00;;;;;;5038970;28;1022;-71
2022/12/02 02:00:07;;;;;;;;;;;18.60;60.10;;;;;;5059062;28;1914;-71
2022/12/02 02:02:34;;;;;;;;;;;18.50;60.00;;;;;;5060500;28;887;-72
2022/12/02 02:05:00;;;;;;;;;;;18.50;60.00;;;;;;5041395;28;820;-71
2022/12/02 02:07:26;;;;;;;;;;;18.50;60.00;;;;;;5050553;28;847;-71
2022/12/02 02:09:51;;;;;;;;;;;18.60;60.10;;;;;;5029519;28;1245;-71
2022/12/02 02:12:17;;;;;;;;;;;18.50;60.10;;;;;;5036194;28;1220;-71
2022/12/02 02:14:42;;;;;;;;;;;18.50;60.10;;;;;;5061149;28;1475;-71
2022/12/02 02:17:08;;;;;;;;;;;18.50;60.10;;;;;;5059612;28;889;-71
2022/12/02 02:19:33;;;;;;;;;;;18.50;60.10;;;;;;5050608;28;1977;-71
2022/12/02 02:21:59;;;;;;;;;;;18.50;60.10;;;;;;5060390;28;840;-71
2022/12/02 02:24:24;;;;;;;;;;;18.50;60.10;;;;;;5042030;28;1018;-71
2022/12/02 02:26:50;;;;;;;;;;;18.50;60.10;;;;;;5059831;28;836;-71
2022/12/02 02:29:15;;;;;;;;;;;18.50;60.20;;;;;;5040879;28;1318;-72
2022/12/02 02:31:40;;;;;;;;;;;18.50;60.20;;;;;;5058113;28;856;-71
2022/12/02 02:34:06;;;;;;;;;;;18.50;60.20;;;;;;5040366;28;816;-71
2022/12/02 02:36:32;;;;;;;;;;;18.50;60.20;;;;;;5040167;28;907;-71
2022/12/02 02:38:58;;;;;;;;;;;18.50;60.20;;;;;;5060079;28;1953;-71
2022/12/02 02:41:23;;;;;;;;;;;18.50;60.20;;;;;;5056668;28;884;-71
2022/12/02 02:43:48;;;;;;;;;;;18.50;60.20;;;;;;5058835;28;885;-71
2022/12/02 02:46:14;;;;;;;;;;;18.50;60.30;;;;;;5049091;28;888;-71
2022/12/02 02:48:39;;;;;;;;;;;18.50;60.30;;;;;;5040927;28;1298;-71
2022/12/02 02:51:05;;;;;;;;;;;18.50;60.30;;;;;;5054451;28;958;-72
2022/12/02 02:53:30;;;;;;;;;;;18.50;60.30;;;;;;5041422;28;883;-71
2022/12/02 02:55:56;;;;;;;;;;;18.50;60.30;;;;;;5042115;28;851;-71
2022/12/02 02:58:22;;;;;;;;;;;18.50;60.30;;;;;;5058433;28;1278;-71
2022/12/02 03:00:49;;;;;;;;;;;18.50;60.30;;;;;;5054702;28;1971;-71
2022/12/02 03:03:15;;;;;;;;;;;18.50;60.40;;;;;;5038652;28;924;-72
2022/12/02 03:05:41;;;;;;;;;;;18.50;60.40;;;;;;5037732;28;807;-72
2022/12/02 03:08:06;;;;;;;;;;;18.50;60.30;;;;;;5058894;28;1342;-71
2022/12/02 03:10:31;;;;;;;;;;;18.50;60.40;;;;;;5039913;28;892;-71
2022/12/02 03:12:57;;;;;;;;;;;18.50;60.40;;;;;;5043348;28;1155;-72
2022/12/02 03:15:23;;;;;;;;;;;18.50;60.40;;;;;;5060203;28;1380;-71
2022/12/02 03:17:48;;;;;;;;;;;18.50;60.40;;;;;;5042054;28;886;-71
2022/12/02 03:20:14;;;;;;;;;;;18.50;60.40;;;;;;5057947;28;1910;-71
2022/12/02 03:22:39;;;;;;;;;;;18.50;60.40;;;;;;5056940;28;851;-71
2022/12/02 03:25:05;;;;;;;;;;;18.50;60.40;;;;;;5037246;28;895;-71
2022/12/02 03:27:31;;;;;;;;;;;18.50;60.50;;;;;;5040688;28;1304;-71
2022/12/02 03:29:57;;;;;;;;;;;18.50;60.40;;;;;;5059931;28;1286;-72
2022/12/02 03:32:22;;;;;;;;;;;18.50;60.50;;;;;;5049691;28;824;-71
2022/12/02 03:34:48;;;;;;;;;;;18.50;60.50;;;;;;5058109;28;945;-72
2022/12/02 03:37:13;;;;;;;;;;;18.50;60.50;;;;;;5059092;28;868;-71
2022/12/02 03:39:39;;;;;;;;;;;18.50;60.50;;;;;;5058131;28;1902;-71
2022/12/02 03:42:04;;;;;;;;;;;18.50;60.50;;;;;;5057281;28;910;-71
2022/12/02 03:44:30;;;;;;;;;;;18.50;60.50;;;;;;5041475;28;816;-71
2022/12/02 03:46:55;;;;;;;;;;;18.50;60.50;;;;;;5056575;28;956;-71
2022/12/02 03:49:21;;;;;;;;;;;18.50;60.50;;;;;;5042992;28;1295;-72
2022/12/02 03:51:46;;;;;;;;;;;18.50;60.60;;;;;;5041275;28;1040;-71
2022/12/02 03:54:12;;;;;;;;;;;18.40;60.50;;;;;;5050695;28;915;-71
2022/12/02 03:56:38;;;;;;;;;;;18.50;60.60;;;;;;5061319;28;852;-72
2022/12/02 03:59:03;;;;;;;;;;;18.50;60.60;;;;;;5057000;28;1914;-71
2022/12/02 04:01:29;;;;;;;;;;;18.40;60.50;;;;;;5058658;28;844;-71
2022/12/02 04:03:54;;;;;;;;;;;18.40;60.50;;;;;;5056366;28;902;-72
2022/12/02 04:06:20;;;;;;;;;;;18.50;60.60;;;;;;5058297;28;843;-71
2022/12/02 04:08:45;;;;;;;;;;;18.50;60.60;;;;;;5050841;28;1355;-71
2022/12/02 04:11:10;;;;;;;;;;;18.50;60.60;;;;;;5056804;28;904;-71
2022/12/02 04:13:36;;;;;;;;;;;18.40;60.50;;;;;;5059721;28;1318;-71
2022/12/02 04:16:01;;;;;;;;;;;18.50;60.60;;;;;;5058638;28;923;-71
2022/12/02 04:18:27;;;;;;;;;;;18.50;60.50;;;;;;5057447;28;1336;-72
2022/12/02 04:20:53;;;;;;;;;;;18.50;60.60;;;;;;5040747;28;1903;-71
2022/12/02 04:23:18;;;;;;;;;;;18.50;60.50;;;;;;5058773;28;804;-71
2022/12/02 04:25:44;;;;;;;;;;;18.50;60.50;;;;;;5055679;28;890;-71
2022/12/02 04:28:09;;;;;;;;;;;18.50;60.50;;;;;;5056184;28;1331;-71
2022/12/02 04:30:34;;;;;;;;;;;18.50;60.50;;;;;;5060800;28;895;-71
2022/12/02 04:33:00;;;;;;;;;;;18.50;60.50;;;;;;5060358;28;796;-71
2022/12/02 04:35:25;;;;;;;;;;;18.50;60.50;;;;;;5056322;28;911;-71
2022/12/02 04:37:52;;;;;;;;;;;18.50;60.50;;;;;;5060439;28;1049;-71
2022/12/02 04:40:18;;;;;;;;;;;18.50;60.50;;;;;;5057969;28;1972;-71
2022/12/02 04:42:43;;;;;;;;;;;18.50;61.20;;;;;;5059467;28;935;-71
2022/12/02 04:45:09;;;;;;;;;;;18.50;60.40;;;;;;5061488;28;1069;-72
2022/12/02 04:47:34;;;;;;;;;;;18.50;60.50;;;;;;5060952;28;828;-72
2022/12/02 04:50:00;;;;;;;;;;;18.50;60.50;;;;;;5061407;28;1369;-72
2022/12/02 04:52:26;;;;;;;;;;;18.50;60.50;;;;;;5062031;28;867;-71
2022/12/02 04:54:51;;;;;;;;;;;18.50;60.50;;;;;;5062030;28;945;-71
2022/12/02 04:57:17;;;;;;;;;;;18.50;60.50;;;;;;5060655;28;875;-71
2022/12/02 04:59:42;;;;;;;;;;;18.50;60.50;;;;;;5060595;28;2019;-71
2022/12/02 05:02:07;;;;;;;;;;;18.50;60.50;;;;;;5063774;28;910;-71
2022/12/02 05:04:33;;;;;;;;;;;18.50;60.50;;;;;;5063198;28;857;-72
2022/12/02 05:06:58;;;;;;;;;;;18.50;60.50;;;;;;5058788;28;916;-71
2022/12/02 05:09:24;;;;;;;;;;;18.50;60.50;;;;;;5060407;28;1347;-71
2022/12/02 05:11:49;;;;;;;;;;;18.50;60.50;;;;;;5060864;28;927;-71
2022/12/02 05:14:15;;;;;;;;;;;18.50;60.50;;;;;;5063959;28;1321;-71
2022/12/02 05:16:40;;;;;;;;;;;18.50;60.40;;;;;;5056145;28;1637;-71
2022/12/02 05:19:05;;;;;;;;;;;18.50;60.40;;;;;;5057506;28;1910;-71
2022/12/02 05:21:31;;;;;;;;;;;18.50;60.30;;;;;;5051496;28;1070;-71
2022/12/02 05:23:56;;;;;;;;;;;18.60;60.30;;;;;;5061946;28;839;-71
2022/12/02 05:26:22;;;;;;;;;;;18.60;60.30;;;;;;5043515;28;1449;-72
2022/12/02 05:28:47;;;;;;;;;;;18.60;60.20;;;;;;5060220;28;1275;-71
2022/12/02 05:31:13;;;;;;;;;;;18.60;60.10;;;;;;5058230;28;801;-71
2022/12/02 05:33:38;;;;;;;;;;;18.70;60.10;;;;;;5063522;28;1081;-71
2022/12/02 05:36:04;;;;;;;;;;;18.70;60.00;;;;;;5063180;28;1057;-71
2022/12/02 05:38:29;;;;;;;;;;;18.70;59.90;;;;;;5061801;28;1256;-71
2022/12/02 05:40:55;;;;;;;;;;;18.70;59.90;;;;;;5063464;28;1909;-71
2022/12/02 05:43:24;;;;;;;;;;;18.70;59.80;;;;;;5060335;28;970;-70
2022/12/02 05:45:49;;;;;;;;;;;18.70;59.80;;;;;;5052407;28;926;-71
2022/12/02 05:48:15;;;;;;;;;;;18.80;59.80;;;;;;5040281;28;1323;-71
2022/12/02 05:50:41;;;;;;;;;;;18.80;59.70;;;;;;5041793;28;1826;-71
2022/12/02 05:53:09;;;;;;;;;;;18.80;59.70;;;;;;5059052;28;859;-71
2022/12/02 05:55:35;;;;;;;;;;;18.80;59.80;;;;;;5054864;28;1819;-71
2022/12/02 05:58:00;;;;;;;;;;;18.80;59.60;;;;;;5039628;28;1334;-71
2022/12/02 06:00:26;;;;;;;;;;;18.80;59.60;;;;;;5050577;28;1914;-71
2022/12/02 06:02:52;;;;;;;;;;;18.80;59.60;;;;;;5061515;28;871;-72
2022/12/02 06:05:25;;;;;;;;;;;18.80;59.50;;;;;;5043697;28;1030;-72
2022/12/02 06:07:52;;;;;;;;;;;18.80;59.50;;;;;;5063635;28;1069;-72
2022/12/02 06:10:22;;;;;;;;;;;18.90;59.60;;;;;;5043808;28;1189;-71
2022/12/02 06:12:47;;;;;;;;;;;19.00;59.60;;;;;;5051378;28;974;-72
2022/12/02 06:15:13;;;;;;;;;;;19.00;59.40;;;;;;5053831;28;1006;-72
2022/12/02 06:17:38;;;;;;;;;;;19.10;59.20;;;;;;5049212;28;806;-72
2022/12/02 06:20:04;;;;;;;;;;;19.30;59.30;;;;;;5063388;28;1960;-71
2022/12/02 06:22:30;;;;;;;;;;;19.40;59.10;;;;;;5059910;28;911;-72
2022/12/02 06:24:56;;;;;;;;;;;19.50;58.90;;;;;;5069028;28;803;-72
2022/12/02 06:27:21;;;;;;;;;;;19.60;58.60;;;;;;5046723;28;891;-72
2022/12/02 06:30:13;;;;;;;;;;;19.70;58.40;;;;;;5045741;28;1264;-72
2022/12/02 06:32:39;;;;;;;;;;;19.90;58.20;;;;;;5063477;28;961;-71
2022/12/02 06:35:25;;;;;;;;;;;20.00;57.90;;;;;;5045916;28;895;-72
2022/12/02 06:37:53;;;;;;;;;;;20.10;57.70;;;;;;5065219;28;1189;-71
2022/12/02 06:40:23;;;;;;;;;;;20.20;57.40;;;;;;5054170;28;2001;-71
2022/12/02 06:42:48;;;;;;;;;;;20.30;57.20;;;;;;5061272;28;892;-72
2022/12/02 06:45:14;;;;;;;;;;;20.40;57.10;;;;;;5043907;28;1018;-72
2022/12/02 06:47:45;;;;;;;;;;;20.40;56.80;;;;;;5062932;28;1215;-71
2022/12/02 06:50:20;;;;;;;;;;;20.50;56.70;;;;;;5043696;28;1159;-71
2022/12/02 06:52:45;;;;;;;;;;;20.50;56.60;;;;;;5058130;28;852;-71
2022/12/02 06:55:26;;;;;;;;;;;20.60;56.40;;;;;;5066310;28;1073;-71
2022/12/02 06:57:52;;;;;;;;;;;20.70;56.40;;;;;;5062165;28;943;-71
2022/12/02 07:00:17;;;;;;;;;;;20.70;56.30;;;;;;5045317;28;1938;-71
2022/12/02 07:02:43;;;;;;;;;;;20.70;56.20;;;;;;5057388;28;839;-71
2022/12/02 07:05:08;;;;;;;;;;;20.70;56.20;;;;;;5041020;28;816;-71
2022/12/02 07:07:33;;;;;;;;;;;20.70;56.20;;;;;;5045003;28;884;-71
2022/12/02 07:10:00;;;;;;;;;;;20.70;56.20;;;;;;5060585;28;1282;-71
2022/12/02 07:12:28;;;;;;;;;;;20.70;56.20;;;;;;5043719;28;989;-71
2022/12/02 07:14:54;;;;;;;;;;;20.70;56.20;;;;;;5062520;28;1136;-71
2022/12/02 07:17:25;;;;;;;;;;;20.70;56.30;;;;;;5060082;28;959;-71
2022/12/02 07:19:56;;;;;;;;;;;20.70;56.30;;;;;;5061111;28;1971;-71
2022/12/02 07:22:22;;;;;;;;;;;20.70;56.30;;;;;;5042954;28;1035;-71
2022/12/02 07:25:03;;;;;;;;;;;20.70;56.40;;;;;;5041887;28;959;-71
2022/12/02 07:27:29;;;;;;;;;;;20.70;56.40;;;;;;5059723;28;764;-71
2022/12/02 07:29:54;;;;;;;;;;;20.70;56.40;;;;;;5058010;28;1997;-71
2022/12/02 07:32:20;;;;;;;;;;;20.70;56.40;;;;;;5033485;28;1899;-72
2022/12/02 07:34:45;;;;;;;;;;;20.70;56.40;;;;;;5061853;28;1482;-71
2022/12/02 07:37:11;;;;;;;;;;;20.70;56.40;;;;;;5059372;28;1349;-71
2022/12/02 07:39:36;;;;;;;;;;;20.70;56.40;;;;;;5055854;28;1957;-71
2022/12/02 07:42:02;;;;;;;;;;;20.70;56.40;;;;;;5052957;28;1015;-70
2022/12/02 07:44:27;;;;;;;;;;;20.70;56.50;;;;;;5056550;28;4079;-70
2022/12/02 07:46:53;;;;;;;;;;;20.60;56.50;;;;;;5072996;28;1350;-70
2022/12/02 07:49:18;;;;;;;;;;;20.60;56.50;;;;;;5072959;28;1223;-70
2022/12/02 07:51:44;;;;;;;;;;;20.60;56.50;;;;;;5063178;28;775;-72
2022/12/02 07:54:09;;;;;;;;;;;20.60;56.60;;;;;;5057966;28;887;-72
2022/12/02 07:56:35;;;;;;;;;;;20.60;56.60;;;;;;5055287;28;852;-72
2022/12/02 07:59:01;;;;;;;;;;;20.60;56.70;;;;;;5057301;28;1286;-72
2022/12/02 08:01:27;;;;;;;;;;;20.50;56.60;;;;;;5057766;28;1963;-72
2022/12/02 08:03:52;;;;;;;;;;;20.50;56.70;;;;;;5059499;28;927;-72
2022/12/02 08:06:17;;;;;;;;;;;20.50;56.80;;;;;;5057579;28;1077;-72
2022/12/02 08:08:43;;;;;;;;;;;20.50;56.80;;;;;;5059618;28;1266;-72
2022/12/02 08:11:08;;;;;;;;;;;20.40;57.20;;;;;;5056838;28;1418;-72
2022/12/02 08:13:34;;;;;;;;;;;20.50;58.10;;;;;;5059553;28;1207;-72
2022/12/02 08:15:59;;;;;;;;;;;20.50;57.70;;;;;;5061258;28;1476;-72
2022/12/02 08:18:25;;;;;;;;;;;20.50;58.10;;;;;;5026305;28;1612;-72
2022/12/02 08:20:50;;;;;;;;;;;20.50;58.20;;;;;;5065815;28;1975;-72
2022/12/02 08:23:16;;;;;;;;;;;20.50;58.30;;;;;;5064583;28;1272;-72
2022/12/02 08:25:41;;;;;;;;;;;20.50;58.40;;;;;;5065158;28;1373;-72
2022/12/02 08:28:07;;;;;;;;;;;20.40;58.40;;;;;;5065411;28;1390;-72
2022/12/02 08:30:32;;;;;;;;;;;20.40;58.50;;;;;;5044783;28;888;-72
2022/12/02 08:32:58;;;;;;;;;;;20.40;58.60;;;;;;5062458;28;1006;-72
2022/12/02 08:35:23;;;;;;;;;;;20.40;58.60;;;;;;5042268;28;911;-72
2022/12/02 08:37:48;;;;;;;;;;;20.40;58.70;;;;;;5060586;28;1073;-72
2022/12/02 08:40:14;;;;;;;;;;;20.40;58.90;;;;;;5061851;28;1906;-72
2022/12/02 08:42:41;;;;;;;;;;;20.40;58.90;;;;;;5064804;28;1342;-72
2022/12/02 08:45:06;;;;;;;;;;;20.40;59.00;;;;;;5061102;28;883;-72
2022/12/02 08:47:32;;;;;;;;;;;20.40;59.00;;;;;;5042180;28;925;-72
2022/12/02 08:49:57;;;;;;;;;;;20.30;59.00;;;;;;5060615;28;1275;-72
2022/12/02 08:52:23;;;;;;;;;;;20.30;59.00;;;;;;5062902;28;1150;-72
2022/12/02 08:54:48;;;;;;;;;;;20.40;59.10;;;;;;5060564;28;1045;-72
2022/12/02 08:57:14;;;;;;;;;;;20.30;59.10;;;;;;5040513;28;875;-71
2022/12/02 08:59:39;;;;;;;;;;;20.30;59.10;;;;;;5044095;28;1971;-72
2022/12/02 09:02:05;;;;;;;;;;;20.30;59.20;;;;;;5044867;28;1078;-72
2022/12/02 09:04:30;;;;;;;;;;;20.30;59.20;;;;;;5063268;28;875;-71
2022/12/02 09:06:56;;;;;;;;;;;20.30;59.20;;;;;;5060949;28;1002;-72
2022/12/02 09:09:21;;;;;;;;;;;20.30;59.30;;;;;;5058708;28;1269;-71
2022/12/02 09:11:47;;;;;;;;;;;20.30;59.40;;;;;;5058808;28;885;-71
2022/12/02 09:14:12;;;;;;;;;;;20.30;59.30;;;;;;5061355;28;1400;-72
2022/12/02 09:16:38;;;;;;;;;;;20.30;59.40;;;;;;5060053;28;808;-72
2022/12/02 09:19:03;;;;;;;;;;;20.30;59.50;;;;;;5060048;28;1386;-72
2022/12/02 09:21:28;;;;;;;;;;;20.30;59.50;;;;;;5060189;28;1906;-72
2022/12/02 09:23:54;;;;;;;;;;;20.30;59.60;;;;;;5061694;28;1282;-72
2022/12/02 09:26:19;;;;;;;;;;;20.30;59.60;;;;;;5060009;28;1047;-71
2022/12/02 09:28:45;;;;;;;;;;;20.30;59.60;;;;;;5061982;28;1268;-71
2022/12/02 09:31:11;;;;;;;;;;;20.30;59.70;;;;;;5041805;28;852;-71
2022/12/02 09:33:36;;;;;;;;;;;20.30;59.70;;;;;;5051140;28;1037;-71
2022/12/02 09:36:02;;;;;;;;;;;20.30;59.70;;;;;;5059467;28;936;-71
2022/12/02 09:38:30;;;;;;;;;;;20.30;59.70;;;;;;5042785;28;1255;-71
2022/12/02 09:40:56;;;;;;;;;;;20.30;59.70;;;;;;5060123;28;1898;-71
2022/12/02 09:43:21;;;;;;;;;;;20.30;59.70;;;;;;5060947;28;1318;-71
2022/12/02 09:45:47;;;;;;;;;;;20.30;59.70;;;;;;5060035;28;902;-71
2022/12/02 09:48:12;;;;;;;;;;;20.30;59.70;;;;;;5058905;28;1279;-71
2022/12/02 09:50:38;;;;;;;;;;;20.30;59.80;;;;;;5044708;28;1336;-72
2022/12/02 09:53:04;;;;;;;;;;;20.30;59.70;;;;;;5058376;28;879;-72
2022/12/02 09:55:30;;;;;;;;;;;20.30;59.80;;;;;;5058479;28;860;-71
2022/12/02 09:57:55;;;;;;;;;;;20.30;59.90;;;;;;5061057;28;943;-71
2022/12/02 10:00:22;;;;;;;;;;;20.30;60.00;;;;;;5046951;28;1979;-71
2022/12/02 10:02:50;;;;;;;;;;;20.30;60.00;;;;;;5043516;28;882;-71
2022/12/02 10:05:26;;;;;;;;;;;20.20;60.00;;;;;;5043758;28;1166;-70
2022/12/02 10:07:56;;;;;;;;;;;20.20;60.00;;;;;;5029135;28;1667;-71
2022/12/02 10:10:22;;;;;;;;;;;20.20;60.10;;;;;;5064763;28;1188;-71
2022/12/02 10:12:48;;;;;;;;;;;20.20;60.90;;;;;;5044286;28;1125;-71
2022/12/02 10:15:14;;;;;;;;;;;20.20;60.10;;;;;;5045512;28;942;-71
2022/12/02 10:17:39;;;;;;;;;;;20.20;60.10;;;;;;5046393;28;823;-71
2022/12/02 10:20:05;;;;;;;;;;;20.20;60.00;;;;;;5042777;28;1906;-71
2022/12/02 10:22:31;;;;;;;;;;;20.20;60.10;;;;;;5046752;28;1002;-71
2022/12/02 10:24:57;;;;;;;;;;;20.20;60.10;;;;;;5041644;28;852;-71
2022/12/02 10:27:27;;;;;;;;;;;20.20;60.00;;;;;;5061908;28;824;-71
2022/12/02 10:29:52;;;;;;;;;;;20.20;60.20;;;;;;5039886;28;1255;-71
2022/12/02 10:32:19;;;;;;;;;;;20.20;60.20;;;;;;5041906;28;867;-71
2022/12/02 10:34:45;;;;;;;;;;;20.20;60.20;;;;;;5042290;28;883;-71
2022/12/02 10:37:22;;;;;;;;;;;20.20;60.30;;;;;;5043464;28;877;-71
2022/12/02 10:39:48;;;;;;;;;;;20.20;60.30;;;;;;5059206;28;1902;-71
2022/12/02 10:42:18;;;;;;;;;;;20.20;60.30;;;;;;5040485;28;969;-71
2022/12/02 10:44:44;;;;;;;;;;;20.20;60.40;;;;;;5058170;28;722;-72
2022/12/02 10:47:17;;;;;;;;;;;20.20;60.70;;;;;;5059008;28;808;-71
2022/12/02 10:49:52;;;;;;;;;;;20.20;60.70;;;;;;5051734;28;1286;-72
2022/12/02 10:52:21;;;;;;;;;;;20.20;60.70;;;;;;5040802;28;797;-71
2022/12/02 10:54:47;;;;;;;;;;;20.20;60.70;;;;;;5051687;28;882;-71
2022/12/02 10:57:15;;;;;;;;;;;20.20;60.70;;;;;;5038889;28;903;-71
2022/12/02 10:59:40;;;;;;;;;;;20.20;60.70;;;;;;5027306;28;1986;-71
2022/12/02 11:02:14;;;;;;;;;;;20.30;60.50;;;;;;5049494;28;920;-71
2022/12/02 11:04:39;;;;;;;;;;;20.30;60.50;;;;;;5043938;28;932;-71
2022/12/02 11:07:10;;;;;;;;;;;20.30;60.40;;;;;;5057453;28;875;-71
2022/12/02 11:09:39;;;;;;;;;;;20.30;60.50;;;;;;5039407;28;1259;-70
2022/12/02 11:12:23;;;;;;;;;;;20.30;60.50;;;;;;5059565;28;844;-71
2022/12/02 11:14:49;;;;;;;;;;;20.30;60.40;;;;;;5059302;28;1262;-71
2022/12/02 11:17:15;;;;;;;;;;;20.30;60.70;;;;;;5057424;28;851;-71
2022/12/02 11:19:44;;;;;;;;;;;20.30;60.70;;;;;;5041116;28;1906;-71
2022/12/02 11:22:28;;;;;;;;;;;20.30;60.70;;;;;;5040384;28;867;-71
2022/12/02 11:24:53;;;;;;;;;;;20.30;60.80;;;;;;5059328;28;876;-70
2022/12/02 11:27:19;;;;;;;;;;;20.30;60.60;;;;;;5056446;28;1018;-70
2022/12/02 11:30:03;;;;;;;;;;;20.30;60.80;;;;;;5059788;28;1311;-69
2022/12/02 11:32:28;;;;;;;;;;;20.30;60.70;;;;;;5058218;28;821;-70
2022/12/02 11:34:54;;;;;;;;;;;20.30;60.80;;;;;;5059103;28;856;-70
2022/12/02 11:37:29;;;;;;;;;;;20.20;60.70;;;;;;5049104;28;907;-70
2022/12/02 11:40:15;;;;;;;;;;;20.30;60.80;;;;;;5060913;28;1902;-70
2022/12/02 11:42:41;;;;;;;;;;;20.20;60.80;;;;;;5028252;28;1139;-72
2022/12/02 11:45:32;;;;;;;;;;;20.20;60.60;;;;;;5040589;28;905;-70
2022/12/02 11:47:58;;;;;;;;;;;20.30;60.60;;;;;;5058953;28;1015;-71
2022/12/02 11:50:24;;;;;;;;;;;20.30;60.50;;;;;;5041226;28;1259;-70
2022/12/02 11:52:51;;;;;;;;;;;20.30;60.60;;;;;;5057039;28;844;-70
2022/12/02 11:55:18;;;;;;;;;;;20.30;60.70;;;;;;5035960;28;846;-70
2022/12/02 11:57:47;;;;;;;;;;;20.30;60.70;;;;;;5056845;28;808;-70
2022/12/02 12:00:25;;;;;;;;;;;20.30;60.80;;;;;;5040198;28;1906;-70
2022/12/02 12:03:08;;;;;;;;;;;20.30;60.80;;;;;;5056970;28;808;-70
2022/12/02 12:05:33;;;;;;;;;;;20.30;60.80;;;;;;5041106;28;874;-70
2022/12/02 12:07:59;;;;;;;;;;;20.20;60.80;;;;;;5063259;28;932;-70
2022/12/02 12:10:31;;;;;;;;;;;20.20;60.70;;;;;;5041401;28;1391;-70
2022/12/02 12:13:18;;;;;;;;;;;20.20;60.90;;;;;;5038872;28;1400;-71
2022/12/02 12:15:48;;;;;;;;;;;20.20;60.80;;;;;;5038941;28;1330;-70
2022/12/02 12:18:32;;;;;;;;;;;20.20;60.80;;;;;;5038729;28;1381;-71
2022/12/02 12:20:57;;;;;;;;;;;20.20;60.90;;;;;;5057093;28;1922;-70
2022/12/02 12:23:27;;;;;;;;;;;20.20;60.80;;;;;;5057305;28;875;-71
2022/12/02 12:25:53;;;;;;;;;;;20.20;60.90;;;;;;5041295;28;871;-70
2022/12/02 12:28:22;;;;;;;;;;;20.20;61.30;;;;;;5058228;28;1318;-70
2022/12/02 12:30:47;;;;;;;;;;;20.20;61.30;;;;;;5040436;28;987;-70
2022/12/02 12:33:12;;;;;;;;;;;20.20;61.30;;;;;;5055816;28;975;-70
2022/12/02 12:35:38;;;;;;;;;;;20.20;61.20;;;;;;5057623;28;792;-70
2022/12/02 12:38:03;;;;;;;;;;;20.20;61.20;;;;;;5057026;28;1204;-70
2022/12/02 12:40:29;;;;;;;;;;;20.20;61.30;;;;;;5055070;28;1898;-71
2022/12/02 12:42:54;;;;;;;;;;;20.20;61.40;;;;;;5056500;28;1006;-71
2022/12/02 12:45:20;;;;;;;;;;;20.20;61.50;;;;;;5054670;28;1295;-70
2022/12/02 12:47:45;;;;;;;;;;;20.20;61.30;;;;;;5054370;28;927;-71
2022/12/02 12:50:10;;;;;;;;;;;20.20;61.30;;;;;;5059177;28;1330;-70
2022/12/02 12:52:36;;;;;;;;;;;20.20;61.20;;;;;;5058550;28;851;-70
2022/12/02 12:55:02;;;;;;;;;;;20.20;61.30;;;;;;5057969;28;931;-70
2022/12/02 12:57:28;;;;;;;;;;;20.20;61.40;;;;;;5054626;28;939;-70
2022/12/02 12:59:53;;;;;;;;;;;20.20;61.30;;;;;;5060277;28;1985;-71
2022/12/02 13:02:19;;;;;;;;;;;20.20;61.40;;;;;;5060489;28;1057;-69
2022/12/02 13:04:44;;;;;;;;;;;20.20;61.60;;;;;;5057665;28;1000;-69
2022/12/02 13:07:09;;;;;;;;;;;20.20;58.90;;;;;;5062683;28;816;-69
2022/12/02 13:09:35;;;;;;;;;;;20.10;55.60;;;;;;5056496;28;1302;-69
2022/12/02 13:12:00;;;;;;;;;;;20.00;53.80;;;;;;5044642;28;1122;-69
2022/12/02 13:14:26;;;;;;;;;;;20.00;51.90;;;;;;5063545;28;1409;-69
2022/12/02 13:16:51;;;;;;;;;;;19.90;50.80;;;;;;5063900;28;1520;-69
2022/12/02 13:19:17;;;;;;;;;;;19.80;50.00;;;;;;5060720;28;1815;-68
2022/12/02 13:21:42;;;;;;;;;;;19.70;49.00;;;;;;5061115;28;1972;-71
2022/12/02 13:24:09;;;;;;;;;;;19.70;46.70;;;;;;5060499;28;2039;-70
2022/12/02 13:26:35;;;;;;;;;;;19.50;48.00;;;;;;5063087;28;1267;-70
2022/12/02 13:29:00;;;;;;;;;;;19.50;49.00;;;;;;5062491;28;1373;-70
2022/12/02 13:31:25;;;;;;;;;;;19.50;49.50;;;;;;5060573;28;826;-70
2022/12/02 13:33:51;;;;;;;;;;;19.50;50.10;;;;;;5056965;28;914;-71
2022/12/02 13:36:16;;;;;;;;;;;19.50;50.90;;;;;;5059062;28;791;-71
2022/12/02 13:38:42;;;;;;;;;;;19.40;51.50;;;;;;5062064;28;1352;-71
2022/12/02 13:41:07;;;;;;;;;;;19.40;52.10;;;;;;5041869;28;1973;-71
2022/12/02 13:43:33;;;;;;;;;;;19.40;52.50;;;;;;5063254;28;896;-71
2022/12/02 13:45:58;;;;;;;;;;;19.40;52.90;;;;;;5059778;28;891;-72
2022/12/02 13:48:24;;;;;;;;;;;19.40;53.30;;;;;;5030082;28;1337;-72
2022/12/02 13:50:49;;;;;;;;;;;19.40;53.60;;;;;;5052022;28;4733;-71
2022/12/02 13:53:15;;;;;;;;;;;19.40;53.90;;;;;;5049895;28;4293;-71
2022/12/02 13:55:40;;;;;;;;;;;19.30;54.10;;;;;;5056400;28;1006;-72
2022/12/02 13:58:06;;;;;;;;;;;19.30;54.30;;;;;;5060187;28;1281;-71
2022/12/02 14:00:31;;;;;;;;;;;19.30;54.50;;;;;;5059126;28;1906;-71
2022/12/02 14:02:57;;;;;;;;;;;19.30;54.70;;;;;;5059829;28;808;-71
2022/12/02 14:05:22;;;;;;;;;;;19.40;55.00;;;;;;5054441;28;963;-71
2022/12/02 14:07:47;;;;;;;;;;;19.30;55.10;;;;;;5059454;28;1212;-71
2022/12/02 14:10:13;;;;;;;;;;;19.30;55.20;;;;;;5059002;28;1259;-71
2022/12/02 14:12:38;;;;;;;;;;;19.30;55.50;;;;;;5063078;28;1359;-71
2022/12/02 14:15:04;;;;;;;;;;;19.30;55.50;;;;;;5061306;28;1340;-71
2022/12/02 14:17:30;;;;;;;;;;;19.40;55.70;;;;;;5061138;28;884;-71
2022/12/02 14:19:55;;;;;;;;;;;19.30;55.80;;;;;;5060816;28;1898;-71
2022/12/02 14:22:20;;;;;;;;;;;19.30;55.90;;;;;;5058300;28;978;-71
2022/12/02 14:24:46;;;;;;;;;;;19.30;55.90;;;;;;5060146;28;860;-71
2022/12/02 14:27:11;;;;;;;;;;;19.30;56.10;;;;;;5058925;28;920;-70
2022/12/02 14:29:37;;;;;;;;;;;19.30;56.20;;;;;;5058472;28;1261;-70
2022/12/02 14:32:02;;;;;;;;;;;19.30;56.20;;;;;;5057513;28;939;-70
2022/12/02 14:34:29;;;;;;;;;;;19.30;56.30;;;;;;5044983;28;1155;-70